Latest Coastal Weather Observations for Maningrida Airport

IDD60701

Issued at 2:41 pm CST Monday 26 June 2017 (issued every 10 minutes, with the page automatically refreshed every 10 minutes)

About coastal observations | Map of coastal stations | Coastal observations for NT | Marine services | Other Formats
Station Details ID: 014405 Name: MANINGRIDA AIRPORT Lat: -12.06 Lon: 134.23 Height: 28.1 m
Data from the previous 72 hours. | See also: Recent months at Maningrida Airport
Date/Time
CST
Temp
°C
Wind Pressure Rain since
9am
mm
Weather Cloud Vis
km
Sea
Height
m
Swell
Dir  Spd
kts
Gust
kts
hPa Trend Height
m
Period
s
Dir
26/02:30pm 29.4 ENE 5 9 1011.4 - 0.0 - - 10 - - - -
26/02:00pm 29.8 E 6 9 1011.8 - 0.0 - - 10 - - - -
26/01:30pm 29.6 ESE 6 11 1012.2 - 0.0 - - 10 - - - -
26/01:00pm 29.7 E 6 11 1012.5 - 0.0 - - 10 - - - -
26/12:30pm 28.6 ENE 9 13 1013.1 - 0.0 - - 10 - - - -
26/12:00pm 28.8 E 8 12 1013.5 - 0.0 - - 10 - - - -
26/11:30am 28.8 E 7 12 1013.8 - 0.0 - - 10 - - - -
26/11:00am 28.2 ESE 10 14 1013.9 - 0.0 - - 10 - - - -
26/10:30am 27.5 ESE 8 11 1014.1 - 0.0 - - 10 - - - -
26/10:00am 26.8 ESE 7 11 1014.2 - 0.0 - - 10 - - - -
26/09:30am 26.1 ESE 7 9 1014.3 - 0.0 - - 10 - - - -
26/09:00am 24.8 SE 7 9 1014.4 - 0.0 - - 10 - - - -
26/08:30am 22.8 SE 6 9 1014.3 - 0.0 - - 10 - - - -
26/08:00am 20.0 SE 5 6 1013.9 - 0.0 - - 10 - - - -
26/07:30am 17.9 CALM 0 0 1013.7 - 0.0 - - 10 - - - -
26/07:00am 17.7 CALM 0 0 1013.4 - 0.0 - - 10 - - - -
26/06:30am 18.0 S 4 5 1013.2 - 0.0 - - 10 - - - -
26/06:00am 18.6 S 4 5 1013.1 - 0.0 - - 10 - - - -
26/05:30am 19.3 SSE 5 7 1012.7 - 0.0 - - 10 - - - -
26/05:00am 19.4 SSE 5 7 1012.7 - 0.0 - - 10 - - - -
26/04:30am 19.6 S 5 7 1012.5 - 0.0 - - 10 - - - -
26/04:00am 20.3 SSE 4 6 1012.6 - 0.0 - - 10 - - - -
26/03:30am 21.1 SE 7 9 1012.8 - 0.0 - - 10 - - - -
26/03:00am 21.4 SE 7 9 1012.7 - 0.0 - - 10 - - - -
26/02:30am 21.7 ESE 7 9 1012.8 - 0.0 - Partly cloudy 10 - - - -
26/02:00am 21.7 ESE 6 8 1012.9 - 0.0 - Partly cloudy 10 - - - -
26/01:30am 22.2 SE 7 9 1013.2 - 0.0 - Partly cloudy 10 - - - -
26/01:00am 22.6 ESE 8 11 1013.2 - 0.0 - - 10 - - - -
26/12:30am 22.6 ESE 7 10 1013.2 - 0.0 - - 10 - - - -
26/12:00am 21.5 SE 5 7 1013.2 - 0.0 - - 10 - - - -
 
Date/Time
CST
Temp
°C
Wind Pressure Rain since
9am
mm
Weather Cloud Vis
km
Sea
Height
m
Swell
Dir  Spd
kts
Gust
kts
hPa Trend Height
m
Period
s
Dir
25/11:30pm 21.5 ESE 5 6 1013.1 - 0.0 - - 10 - - - -
25/11:00pm 21.4 ESE 5 6 1012.8 - 0.0 - - 10 - - - -
25/10:30pm 21.3 SE 5 5 1012.9 - 0.0 - - 10 - - - -
25/10:00pm 21.7 SE 4 4 1012.9 - 0.0 - - 9 - - - -
25/09:30pm 22.0 SSE 5 5 1012.8 - 0.0 - Partly cloudy 7 - - - -
25/09:00pm 22.7 SE 4 5 1012.5 - 0.0 - Mostly clear 9 - - - -
25/08:30pm 23.9 E 4 5 1012.5 - 0.0 - Partly cloudy 10 - - - -
25/08:00pm 24.0 E 4 6 1012.2 - 0.0 - Partly cloudy 10 - - - -
25/07:30pm 24.2 E 3 5 1011.9 - 0.0 - Partly cloudy 10 - - - -
25/07:00pm 24.5 ENE 3 5 1011.6 - 0.0 - Partly cloudy 10 - - - -
25/06:30pm 25.0 ENE 3 5 1011.5 - 0.0 - - 10 - - - -
25/06:00pm 26.2 ENE 4 5 1011.3 - 0.0 - - 10 - - - -
25/05:30pm 27.0 ENE 5 7 1011.2 - 0.0 - - 10 - - - -
25/05:00pm 27.5 ENE 7 9 1011.0 - 0.0 - - 10 - - - -
25/04:30pm 27.4 ENE 8 11 1011.0 - 0.0 - - 10 - - - -
25/04:00pm 27.7 ENE 8 12 1010.9 - 0.0 - - 10 - - - -
25/03:30pm 28.2 ENE 8 13 1011.0 - 0.0 - - 10 - - - -
25/03:00pm 28.7 NE 7 11 1011.2 - 0.0 - - 10 - - - -
25/02:30pm 29.1 NE 8 11 1011.3 - 0.0 - - 10 - - - -
25/02:00pm 28.9 NE 7 11 1011.4 - 0.0 - Partly cloudy 10 - - - -
25/01:30pm 29.4 E 8 12 1011.6 - 0.0 - - 10 - - - -
25/01:00pm 29.1 E 9 12 1012.1 - 0.0 - - 10 - - - -
25/12:30pm 27.7 SE 10 16 1012.4 - 0.0 - Partly cloudy 10 - - - -
25/12:00pm 26.7 ESE 10 14 1013.0 - 0.0 - Mostly clear 10 - - - -
25/11:30am 28.0 SE 11 15 1013.3 - 0.0 - Partly cloudy 10 - - - -
25/11:00am 26.1 ESE 10 13 1013.5 - 0.0 - Partly cloudy 10 - - - -
25/10:30am 26.4 SE 10 14 1013.7 - 0.0 - - 10 - - - -
25/10:00am 25.2 ESE 8 13 1014.0 - 0.0 - - 10 - - - -
25/09:30am 24.2 SE 7 10 1013.9 - 0.0 - - 10 - - - -
25/09:00am 22.6 SSE 7 8 1013.6 - 0.0 - - 10 - - - -
25/08:42am 21.1 SE 6 9 1013.4 - 0.0 - Partly cloudy 10 - - - -
25/08:30am 20.7 SSE 6 8 1013.4 - 0.0 - Partly cloudy 10 - - - -
25/08:22am 20.3 SSE 7 9 1013.4 - 0.0 - Partly cloudy 10 - - - -
25/08:00am 19.8 SSE 6 9 1013.2 - 0.0 - Partly cloudy 3 - - - -
25/07:51am 19.6 S 5 7 1013.1 - 0.0 - Partly cloudy 5 - - - -
25/07:50am 19.6 SSE 5 7 1013.1 - 0.0 - Partly cloudy 6 - - - -
25/07:30am 19.6 SSE 5 7 1012.8 - 0.0 - - 10 - - - -
25/07:00am 19.3 SSE 5 7 1012.2 - 0.0 - - 10 - - - -
25/06:30am 18.7 SE 7 7 1012.0 - 0.0 - - 10 - - - -
25/06:00am 18.8 SSE 6 7 1012.0 - 0.0 - - 10 - - - -
25/05:30am 18.4 SSE 4 5 1012.0 - 0.0 - - 10 - - - -
25/05:00am 19.3 SSE 6 6 1012.0 - 0.0 - - 10 - - - -
25/04:30am 19.1 SE 5 6 1011.8 - 0.0 - - 10 - - - -
25/04:00am 19.6 SSE 5 6 1011.8 - 0.0 - - 10 - - - -
25/03:30am 19.7 SSE 6 6 1012.0 - 0.0 - - 10 - - - -
25/03:00am 20.1 SSE 6 7 1012.1 - 0.0 - - 10 - - - -
25/02:30am 20.6 SE 7 8 1012.4 - 0.0 - - 10 - - - -
25/02:00am 20.6 SSE 7 7 1012.5 - 0.0 - - 10 - - - -
25/01:30am 21.1 SSE 7 9 1012.5 - 0.0 - - 10 - - - -
25/01:00am 22.0 SE 9 13 1012.6 - 0.0 - - 10 - - - -
25/12:30am 22.0 ESE 8 11 1012.6 - 0.0 - - 10 - - - -
25/12:00am 22.4 ESE 8 11 1012.5 - 0.0 - - 10 - - - -
 
Date/Time
CST
Temp
°C
Wind Pressure Rain since
9am
mm
Weather Cloud Vis
km
Sea
Height
m
Swell
Dir  Spd
kts
Gust
kts
hPa Trend Height
m
Period
s
Dir
24/11:30pm 22.3 ESE 6 9 1012.3 - 0.0 - - 10 - - - -
24/11:00pm 22.8 ESE 7 9 1012.3 - 0.0 - - 10 - - - -
24/10:30pm 22.8 SE 6 8 1012.2 - 0.0 - - 10 - - - -
24/10:00pm 23.2 ESE 5 7 1012.1 - 0.0 - - 10 - - - -
24/09:30pm 22.2 ESE 4 5 1011.7 - 0.0 - - 7 - - - -
24/09:08pm 22.8 E 3 4 1011.5 - 0.0 - - 8 - - - -
24/09:00pm 22.6 ESE 3 4 1011.4 - 0.0 - - 6 - - - -
24/08:52pm 22.5 E 3 4 1011.3 - 0.0 - - 5 - - - -
24/08:30pm 22.9 E 3 4 1011.0 - 0.0 - - 10 - - - -
24/08:00pm 23.6 E 3 4 1010.7 - 0.0 - - 10 - - - -
24/07:30pm 23.5 E 3 4 1010.4 - 0.0 - - 10 - - - -
24/07:00pm 24.3 CALM 0 0 1010.3 - 0.0 - - 10 - - - -
24/06:30pm 25.7 N 3 4 1010.2 - 0.0 - - 10 - - - -
24/06:00pm 26.6 N 3 5 1010.2 - 0.0 - - 10 - - - -
24/05:30pm 27.3 N 5 7 1010.0 - 0.0 - - 10 - - - -
24/05:00pm 28.5 NNE 7 9 1009.8 - 0.0 - - 10 - - - -
24/04:30pm 29.5 NE 6 9 1009.6 - 0.0 - - 10 - - - -
24/04:00pm 28.9 NE 6 11 1009.7 - 0.0 - - 10 - - - -
24/03:30pm 29.1 ENE 7 9 1009.9 - 0.0 - - 10 - - - -
24/03:00pm 29.3 ENE 7 12 1010.1 - 0.0 - - 10 - - - -
24/02:30pm 29.5 NE 8 12 1010.3 - 0.0 - Partly cloudy 10 - - - -
24/02:00pm 29.7 NE 8 13 1010.7 - 0.0 - Partly cloudy 10 - - - -
24/01:30pm 29.4 E 5 10 1011.4 - 0.0 - Partly cloudy 10 - - - -
24/01:00pm 29.5 ESE 8 13 1012.0 - 0.0 - Partly cloudy 10 - - - -
24/12:30pm 28.7 ESE 9 14 1012.5 - 0.0 - Partly cloudy 10 - - - -
24/12:00pm 28.1 ESE 9 14 1013.0 - 0.0 - - 10 - - - -
24/11:30am 27.9 ESE 7 12 1013.3 - 0.0 - - 10 - - - -
24/11:00am 27.9 SE 8 11 1013.6 - 0.0 - - 10 - - - -
24/10:30am 26.4 SE 11 15 1013.8 - 0.0 - - 10 - - - -
24/10:00am 25.3 ESE 10 15 1014.0 - 0.0 - - 10 - - - -
24/09:30am 24.7 ESE 10 14 1013.9 - 0.0 - - 10 - - - -
24/09:00am 23.4 SE 9 12 1013.8 - - - - 10 - - - -
24/08:30am 21.0 S 5 9 1013.6 - - - - 10 - - - -
24/08:00am 19.9 S 4 6 1013.2 - - - - 10 - - - -
24/07:30am 19.6 S 5 7 1012.9 - - - - 10 - - - -
24/07:00am 18.5 S 4 5 1012.7 - - - - 8 - - - -
24/06:30am 18.1 S 2 3 1012.5 - - - - 9 - - - -
24/06:00am 18.6 S 3 4 1012.2 - - - - 8 - - - -
24/05:30am 18.8 S 3 3 1012.2 - - - - 9 - - - -
24/05:00am 19.5 S 3 4 1012.2 - - - - 10 - - - -
24/04:30am 20.5 SSE 4 5 1012.1 - - - - 10 - - - -
24/04:00am 20.8 SSE 6 7 1012.1 - - - - 10 - - - -
24/03:30am 21.3 SE 6 8 1012.1 - - - - 10 - - - -
24/03:00am 21.5 SE 8 10 1012.2 - 0.0 - - 10 - - - -
24/02:30am 21.8 SE 9 12 1012.4 - - - - 10 - - - -
24/02:00am 21.5 SSE 7 10 1012.5 - - - - 10 - - - -
24/01:30am 21.6 SSE 6 8 1012.8 - - - - 10 - - - -
24/01:00am 22.0 SE 7 8 1012.8 - - - - 10 - - - -
24/12:30am 22.5 SSE 7 9 1012.8 - - - - 10 - - - -
24/12:00am 23.1 SE 7 9 1012.8 - - - - 10 - - - -
 
Date/Time
CST
Temp
°C
Wind Pressure Rain since
9am
mm
Weather Cloud Vis
km
Sea
Height
m
Swell
Dir  Spd
kts
Gust
kts
hPa Trend Height
m
Period
s
Dir
23/11:30pm 23.3 ESE 6 9 1012.8 - - - - 10 - - - -
23/11:00pm 23.8 E 7 9 1012.9 - - - - 10 - - - -
23/10:30pm 23.7 E 7 9 1012.9 - - - - 10 - - - -
23/10:00pm 23.7 ESE 6 7 1012.9 - - - - 10 - - - -
23/09:30pm 23.7 E 5 7 1013.0 - - - - 10 - - - -
23/09:00pm 24.0 E 4 5 1012.8 - 0.0 - - 10 - - - -
23/08:30pm 24.1 E 4 5 1012.6 - - - - 10 - - - -
23/08:00pm 24.2 E 4 5 1012.3 - - - - 10 - - - -
23/07:30pm 24.6 ENE 4 5 1012.0 - - - - 10 - - - -
23/07:00pm 25.0 ENE 5 6 1011.6 - - - - 10 - - - -
23/06:30pm 25.4 ENE 5 7 1011.4 - - - - 10 - - - -
23/06:00pm 26.3 ENE 7 9 1011.2 - - - - 10 - - - -
23/05:30pm 27.2 ENE 7 10 1011.0 - - - - 10 - - - -
23/05:00pm 27.8 ENE 8 12 1010.9 - - - - 10 - - - -
23/04:30pm 28.6 ENE 8 11 1010.6 - - - - 10 - - - -
23/04:00pm 28.5 ENE 9 13 1010.7 - - - Partly cloudy 10 - - - -
23/03:30pm 29.2 ENE 9 12 1010.6 - - - Partly cloudy 10 - - - -
23/03:00pm 30.1 SE 7 10 1010.8 - - - Mostly clear 10 - - - -

Other Formats:

Comma delimited format used in spreadsheet applications
http://www.bom.gov.au/fwo/IDD60701/IDD60701.95142.axf

JavaScript Object Notation format (JSON) in row-major order
http://www.bom.gov.au/fwo/IDD60701/IDD60701.95142.json